Atlanta, Georgia
Traffic Map
Current Weather Conditions
Atlanta, Georgia
Scattered Clouds
Scattered Clouds
20°
Feels Like: 20°
Wind Chill: 20° Ceiling: Unl
Heat Index: 20° Visibility: 10mi
Dew Point: 18° Wind: 5mph
Humidity: 87% Direction: 220° (SW)
Pressure: 29.94in Gusts: 0mph
Raw Report DataKATL 010352Z 22004KT 10SM SCT250 20/18 A2994 RMK AO2 SLP132 T02000178
Traffic Incident Summary
Active as of:
Severity:
Category:
InformationThere was an issue retrieving the traffic information for this location. Please try a different location or try again shortly.
Advertisements
Track Severe Weather on mobile